createdAt,value
2022-09-12T00:02:21.237Z,90.42
2022-09-12T00:04:56.233Z,90.40
2022-09-12T00:07:31.144Z,90.27
2022-09-12T00:10:06.632Z,89.98
2022-09-12T00:12:42.086Z,89.94
2022-09-12T00:15:17.916Z,89.98
2022-09-12T00:17:51.320Z,89.45
2022-09-12T00:20:24.523Z,89.44
2022-09-12T00:22:57.800Z,89.75
2022-09-12T00:25:31.829Z,89.66
2022-09-12T00:28:04.982Z,89.57
2022-09-12T00:30:41.882Z,89.62
2022-09-12T00:33:15.575Z,89.76
2022-09-12T00:35:50.935Z,89.89
2022-09-12T00:38:24.322Z,89.19
2022-09-12T00:40:57.451Z,89.07
2022-09-12T00:43:43.102Z,88.91
2022-09-12T00:46:45.370Z,88.70
2022-09-12T00:49:23.862Z,88.68
2022-09-12T00:52:12.793Z,88.49
2022-09-12T00:54:57.569Z,88.36
2022-09-12T00:57:40.077Z,88.35
2022-09-12T01:00:18.081Z,88.38
2022-09-12T01:03:04.578Z,88.59
2022-09-12T01:05:45.164Z,88.10
2022-09-12T01:08:19.443Z,88.22
2022-09-12T01:10:53.172Z,87.96
2022-09-12T01:13:26.892Z,87.70
2022-09-12T01:15:59.874Z,87.30
2022-09-12T01:18:45.898Z,87.39
2022-09-12T01:21:41.043Z,87.44
2022-09-12T01:24:23.463Z,87.45
2022-09-12T01:27:20.111Z,87.08
2022-09-12T01:30:06.211Z,87.18
2022-09-12T01:33:09.141Z,87.58
2022-09-12T01:35:58.711Z,87.51
2022-09-12T01:38:36.902Z,87.36
2022-09-12T01:41:50.962Z,87.28
2022-09-12T01:44:47.155Z,87.46
2022-09-12T01:47:42.241Z,87.41
2022-09-12T01:50:22.403Z,87.69
2022-09-12T01:53:21.733Z,87.57
2022-09-12T01:56:09.503Z,87.40
2022-09-12T01:58:50.612Z,87.59
2022-09-12T02:01:39.833Z,87.64
2022-09-12T02:04:31.069Z,87.70
2022-09-12T02:07:36.470Z,87.54
2022-09-12T02:10:19.164Z,87.60
2022-09-12T02:13:01.433Z,87.66
2022-09-12T02:15:43.073Z,87.87
2022-09-12T02:18:19.123Z,87.62
2022-09-12T02:20:54.215Z,87.35
2022-09-12T02:23:33.146Z,87.41
2022-09-12T02:26:12.993Z,87.07
2022-09-12T02:28:47.893Z,87.33
2022-09-12T02:31:34.025Z,87.50
2022-09-12T02:34:27.786Z,87.24
2022-09-12T02:37:36.124Z,87.46
2022-09-12T02:40:10.205Z,87.42
2022-09-12T02:42:43.143Z,87.48
2022-09-12T02:45:17.010Z,87.64
2022-09-12T02:48:13.611Z,87.65
2022-09-12T02:50:46.735Z,87.88
2022-09-12T02:53:20.770Z,88.10
2022-09-12T02:55:55.111Z,88.24
2022-09-12T02:58:32.397Z,88.26
2022-09-12T03:01:31.698Z,88.18
2022-09-12T03:04:17.797Z,88.29
2022-09-12T03:07:00.111Z,88.20
2022-09-12T03:09:51.710Z,88.28
2022-09-12T03:12:49.312Z,88.16
2022-09-12T03:15:44.091Z,88.25
2022-09-12T03:18:34.105Z,88.54
2022-09-12T03:21:12.494Z,88.68
2022-09-12T03:23:53.568Z,88.76
2022-09-12T03:26:41.476Z,88.67
2022-09-12T03:29:16.993Z,88.75
2022-09-12T03:32:00.432Z,88.56
2022-09-12T03:34:33.449Z,88.53
2022-09-12T03:37:07.021Z,88.41
2022-09-12T03:39:41.183Z,88.38
2022-09-12T03:42:15.355Z,88.22
2022-09-12T03:44:49.024Z,88.08
2022-09-12T03:47:23.139Z,88.12
2022-09-12T03:49:56.278Z,88.21
2022-09-12T03:52:30.024Z,88.34
2022-09-12T03:55:04.412Z,88.89
2022-09-12T03:57:38.152Z,89.00
2022-09-12T04:00:15.325Z,88.95
2022-09-12T04:02:57.585Z,88.91
2022-09-12T04:05:30.755Z,88.98
2022-09-12T04:08:03.930Z,89.05
2022-09-12T04:10:37.034Z,89.12
2022-09-12T04:13:10.178Z,89.03
2022-09-12T04:15:44.842Z,89.00
2022-09-12T04:18:19.167Z,88.86
2022-09-12T04:20:52.973Z,88.93
2022-09-12T04:23:26.350Z,88.91
2022-09-12T04:26:03.890Z,88.91
2022-09-12T04:28:38.236Z,89.11
2022-09-12T04:31:15.963Z,89.10
2022-09-12T04:33:49.060Z,88.94
2022-09-12T04:36:27.636Z,88.86
2022-09-12T04:39:01.036Z,89.03
2022-09-12T04:41:37.012Z,88.91
2022-09-12T04:44:15.171Z,88.97
2022-09-12T04:46:50.294Z,89.16
2022-09-12T04:49:23.928Z,88.89
2022-09-12T04:51:57.713Z,88.95
2022-09-12T04:54:31.641Z,88.93
2022-09-12T04:57:05.296Z,88.52
2022-09-12T04:59:40.541Z,88.12
2022-09-12T05:02:14.174Z,88.15
2022-09-12T05:04:48.690Z,87.99
2022-09-12T05:07:22.844Z,87.35
2022-09-12T05:09:56.712Z,87.68
2022-09-12T05:12:31.717Z,87.61
2022-09-12T05:15:05.461Z,87.50
2022-09-12T05:17:39.324Z,87.50
2022-09-12T05:20:13.540Z,87.41
2022-09-12T05:22:50.631Z,87.18
2022-09-12T05:25:24.400Z,86.85
2022-09-12T05:27:58.469Z,86.75
2022-09-12T05:30:32.120Z,86.68
2022-09-12T05:33:05.442Z,86.38
2022-09-12T05:35:38.990Z,86.09
2022-09-12T05:38:12.282Z,85.87
2022-09-12T05:40:45.752Z,85.84
2022-09-12T05:43:21.782Z,86.12
2022-09-12T05:45:55.684Z,86.24
2022-09-12T05:48:29.375Z,85.92
2022-09-12T05:51:09.971Z,85.77
2022-09-12T05:53:44.218Z,85.52
2022-09-12T05:56:19.695Z,85.02
2022-09-12T05:58:58.922Z,85.10
2022-09-12T06:01:35.222Z,85.07
2022-09-12T06:04:10.389Z,85.18
2022-09-12T06:06:55.785Z,85.12
2022-09-12T06:09:29.972Z,85.08
2022-09-12T06:12:04.751Z,84.87
2022-09-12T06:14:39.584Z,84.94
2022-09-12T06:17:16.366Z,85.14
2022-09-12T06:19:53.017Z,84.25
2022-09-12T06:22:27.240Z,83.63
2022-09-12T06:25:00.895Z,83.69
2022-09-12T06:27:34.779Z,83.95
2022-09-12T06:30:08.509Z,84.01
2022-09-12T06:32:41.976Z,83.85
2022-09-12T06:35:15.660Z,84.30
2022-09-12T06:37:49.358Z,84.76
2022-09-12T06:40:23.345Z,85.22
2022-09-12T06:42:57.419Z,84.83
2022-09-12T06:45:38.725Z,84.16
2022-09-12T06:48:15.008Z,83.45
2022-09-12T06:50:59.620Z,82.78
2022-09-12T06:53:34.259Z,82.26
2022-09-12T06:56:12.924Z,81.47
2022-09-12T06:58:48.477Z,81.24
2022-09-12T07:01:28.441Z,80.97
2022-09-12T07:04:03.935Z,81.10
2022-09-12T07:06:43.231Z,80.66
2022-09-12T07:09:17.628Z,79.68
2022-09-12T07:11:51.772Z,79.74
2022-09-12T07:14:27.102Z,79.40
2022-09-12T07:17:00.558Z,78.27
2022-09-12T07:19:35.723Z,76.81
2022-09-12T07:22:09.250Z,75.29
2022-09-12T07:24:43.122Z,74.37
2022-09-12T07:27:19.030Z,74.25
2022-09-12T07:29:52.361Z,72.21
2022-09-12T07:32:25.213Z,72.34
2022-09-12T07:34:58.375Z,69.18
2022-09-12T07:37:33.565Z,69.02
2022-09-12T07:40:07.215Z,69.32
2022-09-12T07:42:40.628Z,68.55
2022-09-12T07:45:14.011Z,69.76
2022-09-12T07:47:47.951Z,69.07
2022-09-12T07:50:21.916Z,68.28
2022-09-12T07:52:56.814Z,67.74
2022-09-12T07:55:30.589Z,67.01
2022-09-12T07:58:04.722Z,67.18
2022-09-12T08:00:39.044Z,65.26
2022-09-12T08:03:13.627Z,63.15
2022-09-12T08:05:47.585Z,63.49
2022-09-12T08:08:21.284Z,64.64
2022-09-12T08:11:04.748Z,65.23
2022-09-12T08:13:39.492Z,65.23
2022-09-12T08:16:18.807Z,65.02
2022-09-12T08:18:52.410Z,64.80
2022-09-12T08:21:31.147Z,64.40
2022-09-12T08:24:06.653Z,64.92
2022-09-12T08:26:42.461Z,63.12
2022-09-12T08:29:17.244Z,63.45
2022-09-12T08:31:57.021Z,62.86
2022-09-12T08:34:31.213Z,63.03
2022-09-12T08:37:04.907Z,62.09
2022-09-12T08:39:38.641Z,61.09
2022-09-12T08:42:24.509Z,61.70
2022-09-12T08:45:06.933Z,61.47
2022-09-12T08:50:36.712Z,61.56
2022-09-12T08:53:27.782Z,62.05
2022-09-12T08:56:07.742Z,62.70
2022-09-12T08:58:47.120Z,62.45
2022-09-12T09:01:29.441Z,61.43
2022-09-12T09:04:42.582Z,59.10
2022-09-12T09:07:53.897Z,60.80
2022-09-12T09:10:44.570Z,61.52
2022-09-12T09:13:53.458Z,59.67
2022-09-12T09:16:40.294Z,60.18
2022-09-12T09:19:24.164Z,59.73
2022-09-12T09:22:15.296Z,58.76
2022-09-12T09:25:02.023Z,58.14
2022-09-12T09:27:51.651Z,58.55
2022-09-12T09:30:24.913Z,57.89
2022-09-12T09:33:02.091Z,56.31
2022-09-12T09:36:02.606Z,53.06
2022-09-12T09:38:51.998Z,54.03
2022-09-12T09:41:34.684Z,54.20
2022-09-12T09:46:50.772Z,53.68
2022-09-12T09:49:25.168Z,52.99
2022-09-12T09:52:01.749Z,52.14
2022-09-12T09:54:58.212Z,51.38
2022-09-12T09:57:45.417Z,50.17
2022-09-12T10:00:38.107Z,46.86
2022-09-12T10:03:16.374Z,46.39
2022-09-12T10:05:54.743Z,47.78
2022-09-12T10:08:33.950Z,47.90
2022-09-12T10:11:20.441Z,47.38
2022-09-12T10:14:03.770Z,47.80
2022-09-12T10:16:57.175Z,48.62
2022-09-12T10:19:52.687Z,49.16
2022-09-12T10:22:42.061Z,50.53
2022-09-12T10:25:21.973Z,51.79
2022-09-12T10:28:03.568Z,51.38
2022-09-12T10:30:36.415Z,51.07
2022-09-12T10:33:14.684Z,50.93
2022-09-12T10:35:51.677Z,50.77
2022-09-12T10:38:35.567Z,50.72
2022-09-12T10:41:14.239Z,51.47
2022-09-12T10:43:49.383Z,50.91
2022-09-12T10:46:23.656Z,51.49
2022-09-12T10:49:16.754Z,51.45
2022-09-12T10:51:50.926Z,51.34
2022-09-12T10:54:26.931Z,51.49
2022-09-12T10:57:32.695Z,52.58
2022-09-12T11:00:35.964Z,52.17
2022-09-12T11:03:37.968Z,51.04
2022-09-12T11:06:14.805Z,51.24
2022-09-12T11:09:04.170Z,51.29
2022-09-12T11:11:57.927Z,51.05
2022-09-12T11:14:53.852Z,51.05
2022-09-12T11:17:49.289Z,51.74
2022-09-12T11:20:37.470Z,52.67
2022-09-12T11:23:48.419Z,52.41
2022-09-12T11:26:42.330Z,52.89
2022-09-12T11:29:24.173Z,52.57
2022-09-12T11:32:35.993Z,52.46
2022-09-12T11:35:21.958Z,52.35
2022-09-12T11:38:29.661Z,52.01
2022-09-12T11:41:27.351Z,51.65
2022-09-12T11:44:20.331Z,51.50
2022-09-12T11:46:53.791Z,51.61
2022-09-12T11:49:38.282Z,51.20
2022-09-12T11:52:25.946Z,51.44
2022-09-12T11:55:11.755Z,51.47
2022-09-12T11:57:58.914Z,51.20
2022-09-12T12:00:49.212Z,51.31
2022-09-12T12:03:41.049Z,50.56
2022-09-12T12:06:21.123Z,50.23
2022-09-12T12:08:55.219Z,50.48
2022-09-12T12:11:42.964Z,50.82
2022-09-12T12:14:23.033Z,50.48
2022-09-12T12:16:56.493Z,50.14
2022-09-12T12:19:38.755Z,50.42
2022-09-12T12:22:26.627Z,49.80
2022-09-12T12:25:29.437Z,50.70
2022-09-12T12:28:06.370Z,50.48
2022-09-12T12:30:39.533Z,50.15
2022-09-12T12:33:14.825Z,49.92
2022-09-12T12:36:07.907Z,50.00
2022-09-12T12:38:42.478Z,49.88
2022-09-12T12:41:20.753Z,49.66
2022-09-12T12:43:58.247Z,49.74
2022-09-12T12:46:33.333Z,49.26
2022-09-12T12:49:35.834Z,49.62
2022-09-12T12:52:18.682Z,49.72
2022-09-12T12:54:59.002Z,49.77
2022-09-12T12:57:39.356Z,48.79
2022-09-12T13:00:35.619Z,49.05
2022-09-12T13:03:08.752Z,48.06
2022-09-12T13:05:59.766Z,48.52
2022-09-12T13:08:40.077Z,48.08
2022-09-12T13:11:31.485Z,48.88
2022-09-12T13:14:07.780Z,48.78
2022-09-12T13:16:42.886Z,48.46
2022-09-12T13:19:36.074Z,49.35
2022-09-12T13:22:11.343Z,49.27
2022-09-12T13:24:53.164Z,48.33
2022-09-12T13:27:27.877Z,48.35
2022-09-12T13:30:16.121Z,48.46
2022-09-12T13:32:49.249Z,48.87
2022-09-12T13:35:50.816Z,49.38
2022-09-12T13:38:50.893Z,49.22
2022-09-12T13:42:00.857Z,49.19
2022-09-12T13:44:43.609Z,49.23
2022-09-12T13:47:34.006Z,49.01
2022-09-12T13:50:09.024Z,48.95
2022-09-12T13:52:42.555Z,48.58
2022-09-12T13:55:34.843Z,48.26
2022-09-12T13:58:29.190Z,48.15
2022-09-12T14:01:14.918Z,48.27
2022-09-12T14:04:16.213Z,48.19
2022-09-12T14:06:53.703Z,48.14
2022-09-12T14:09:33.525Z,48.27
2022-09-12T14:12:21.564Z,48.00
2022-09-12T14:14:55.148Z,48.44
2022-09-12T14:17:36.596Z,47.72
2022-09-12T14:20:19.270Z,47.41
2022-09-12T14:22:54.716Z,47.22
2022-09-12T14:25:31.079Z,47.73
2022-09-12T14:28:05.290Z,47.95
2022-09-12T14:30:39.969Z,48.11
2022-09-12T14:33:20.066Z,48.64
2022-09-12T14:36:09.134Z,49.05
2022-09-12T14:38:47.364Z,49.80
2022-09-12T14:41:40.281Z,50.19
2022-09-12T14:44:21.869Z,50.59
2022-09-12T14:46:55.633Z,50.79
2022-09-12T14:49:41.467Z,50.99
2022-09-12T14:52:34.507Z,51.17
2022-09-12T14:55:46.804Z,51.68
2022-09-12T14:58:28.683Z,52.20
2022-09-12T15:01:04.346Z,52.46
2022-09-12T15:03:39.876Z,52.21
2022-09-12T15:06:38.223Z,52.41
2022-09-12T15:09:15.118Z,52.50
2022-09-12T15:11:48.125Z,52.54
2022-09-12T15:14:21.458Z,52.48
2022-09-12T15:16:54.778Z,52.67
2022-09-12T15:19:27.822Z,52.73
2022-09-12T15:22:01.220Z,52.92
2022-09-12T15:24:33.946Z,53.13
2022-09-12T15:27:17.438Z,54.38
2022-09-12T15:29:51.254Z,55.09
2022-09-12T15:32:28.439Z,55.51
2022-09-12T15:35:02.015Z,56.68
2022-09-12T15:37:35.274Z,57.85
2022-09-12T15:40:09.239Z,60.13
2022-09-12T15:42:42.914Z,60.61
2022-09-12T15:45:22.107Z,61.27
2022-09-12T15:47:55.149Z,61.32
2022-09-12T15:50:28.655Z,60.96
2022-09-12T15:53:02.221Z,61.18
2022-09-12T15:55:35.680Z,60.67
2022-09-12T15:58:09.501Z,61.23
2022-09-12T16:00:42.281Z,61.45
2022-09-12T16:03:33.336Z,60.95
2022-09-12T16:06:07.961Z,60.17
2022-09-12T16:08:40.727Z,60.09
2022-09-12T16:11:26.593Z,60.00
2022-09-12T16:13:59.459Z,60.08
2022-09-12T16:16:32.625Z,59.95
2022-09-12T16:19:06.826Z,59.71
2022-09-12T16:21:42.492Z,59.49
2022-09-12T16:24:15.378Z,59.23
2022-09-12T16:26:48.165Z,60.37
2022-09-12T16:29:21.361Z,60.77
2022-09-12T16:31:56.201Z,61.38
2022-09-12T16:34:29.154Z,61.92
2022-09-12T16:37:03.310Z,62.46
2022-09-12T16:39:36.143Z,62.88
2022-09-12T16:42:08.940Z,63.05
2022-09-12T16:44:42.107Z,64.94
2022-09-12T16:47:15.151Z,64.99
2022-09-12T16:49:48.191Z,64.79
2022-09-12T16:52:21.266Z,64.62
2022-09-12T16:54:54.686Z,64.26
2022-09-12T16:57:30.730Z,64.20
2022-09-12T17:00:04.413Z,64.14
2022-09-12T17:02:37.832Z,63.89
2022-09-12T17:05:11.312Z,63.66
2022-09-12T17:07:44.986Z,63.39
2022-09-12T17:10:19.606Z,63.62
2022-09-12T17:12:52.964Z,63.64
2022-09-12T17:15:26.653Z,63.50
2022-09-12T17:18:00.114Z,63.67
2022-09-12T17:20:33.671Z,63.51
2022-09-12T17:23:09.747Z,63.88
2022-09-12T17:25:43.176Z,63.95
2022-09-12T17:28:15.812Z,63.62
2022-09-12T17:30:49.157Z,63.69
2022-09-12T17:33:22.156Z,63.83
2022-09-12T17:35:54.781Z,63.73
2022-09-12T17:38:28.121Z,63.84
2022-09-12T17:41:06.762Z,63.88
2022-09-12T17:43:40.563Z,64.43
2022-09-12T17:46:13.627Z,64.45
2022-09-12T17:48:46.278Z,64.33
2022-09-12T17:51:18.719Z,63.98
2022-09-12T17:53:51.490Z,63.80
2022-09-12T17:56:24.392Z,63.75
2022-09-12T17:58:57.886Z,63.74
2022-09-12T18:01:51.568Z,63.47
2022-09-12T18:04:24.658Z,63.27
2022-09-12T18:06:58.245Z,63.31
2022-09-12T18:09:31.484Z,63.32
2022-09-12T18:12:04.481Z,63.12
2022-09-12T18:14:38.150Z,63.33
2022-09-12T18:17:11.974Z,63.40
2022-09-12T18:19:45.258Z,63.48
2022-09-12T18:22:17.878Z,63.39
2022-09-12T18:24:50.285Z,63.18
2022-09-12T18:27:23.514Z,63.16
2022-09-12T18:30:19.550Z,63.30
2022-09-12T18:32:51.282Z,63.57
2022-09-12T18:35:24.126Z,63.43
2022-09-12T18:37:57.613Z,63.33
2022-09-12T18:40:30.933Z,63.10
2022-09-12T18:43:03.512Z,63.21
2022-09-12T18:45:37.911Z,63.36
2022-09-12T18:48:11.522Z,63.58
2022-09-12T18:50:45.120Z,63.58
2022-09-12T18:53:18.073Z,63.88
2022-09-12T18:55:50.978Z,63.84
2022-09-12T18:58:23.665Z,63.95
2022-09-12T19:00:56.571Z,64.21
2022-09-12T19:03:29.338Z,64.13
2022-09-12T19:06:02.777Z,64.37
2022-09-12T19:08:37.211Z,64.34
2022-09-12T19:11:11.527Z,64.58
2022-09-12T19:13:45.235Z,64.72
2022-09-12T19:16:21.081Z,64.89
2022-09-12T19:18:54.970Z,65.01
2022-09-12T19:21:30.168Z,65.15
2022-09-12T19:24:13.972Z,65.22
2022-09-12T19:26:46.875Z,65.50
2022-09-12T19:29:19.866Z,65.70
2022-09-12T19:31:52.820Z,65.86
2022-09-12T19:34:25.524Z,66.03
2022-09-12T19:36:59.828Z,66.35
2022-09-12T19:39:32.504Z,66.64
2022-09-12T19:42:05.381Z,66.82
2022-09-12T19:44:38.733Z,67.26
2022-09-12T19:47:12.053Z,67.28
2022-09-12T19:49:44.989Z,67.44
2022-09-12T19:52:17.941Z,67.83
2022-09-12T19:54:50.568Z,68.11
2022-09-12T19:57:23.784Z,68.39
2022-09-12T19:59:56.426Z,68.49
2022-09-12T20:02:30.404Z,68.75
2022-09-12T20:05:03.362Z,68.95
2022-09-12T20:07:36.202Z,68.95
2022-09-12T20:10:09.219Z,69.06
2022-09-12T20:12:42.359Z,70.33
2022-09-12T20:15:16.047Z,70.51
2022-09-12T20:17:49.129Z,70.28
2022-09-12T20:20:21.838Z,70.20
2022-09-12T20:22:55.211Z,70.43
2022-09-12T20:25:27.704Z,70.44
2022-09-12T20:28:00.412Z,70.90
2022-09-12T20:30:32.965Z,70.81
2022-09-12T20:33:05.700Z,70.85
2022-09-12T20:35:39.544Z,71.44
2022-09-12T20:38:12.148Z,71.32
2022-09-12T20:40:50.946Z,71.37
2022-09-12T20:43:23.752Z,71.25
2022-09-12T20:45:57.007Z,71.25
2022-09-12T20:48:29.952Z,70.92
2022-09-12T20:51:03.340Z,70.95
2022-09-12T20:53:36.391Z,70.71
2022-09-12T20:56:10.647Z,70.71
2022-09-12T20:58:44.857Z,70.65
2022-09-12T21:01:18.401Z,70.51
2022-09-12T21:03:51.460Z,70.03
2022-09-12T21:06:24.764Z,69.79
2022-09-12T21:09:01.463Z,69.50
2022-09-12T21:11:34.918Z,69.33
2022-09-12T21:14:12.084Z,69.30
2022-09-12T21:16:45.367Z,69.08
2022-09-12T21:19:18.381Z,68.86
2022-09-12T21:21:50.867Z,68.71
2022-09-12T21:24:23.713Z,68.69
2022-09-12T21:26:57.449Z,68.56
2022-09-12T21:29:32.763Z,68.58
2022-09-12T21:32:09.941Z,68.58
2022-09-12T21:34:48.547Z,68.49
2022-09-12T21:37:22.553Z,68.69
2022-09-12T21:39:55.956Z,68.76
2022-09-12T21:42:29.073Z,68.72
2022-09-12T21:45:02.585Z,68.73
2022-09-12T21:47:36.004Z,68.72
2022-09-12T21:50:12.939Z,68.55
2022-09-12T21:52:46.732Z,68.37
2022-09-12T21:55:20.725Z,68.35
2022-09-12T21:57:53.910Z,68.27
2022-09-12T22:00:26.556Z,68.23
2022-09-12T22:02:59.469Z,68.23
2022-09-12T22:05:33.951Z,68.27
2022-09-12T22:08:06.233Z,68.22
2022-09-12T22:10:39.081Z,68.09
2022-09-12T22:13:11.767Z,68.11
2022-09-12T22:15:46.356Z,68.12
2022-09-12T22:18:19.079Z,68.04
2022-09-12T22:20:51.839Z,67.95
2022-09-12T22:23:42.839Z,68.03
2022-09-12T22:26:16.140Z,67.91
2022-09-12T22:28:48.729Z,67.90
2022-09-12T22:31:21.997Z,68.06
2022-09-12T22:33:57.437Z,68.08
2022-09-12T22:36:31.368Z,68.14
2022-09-12T22:39:06.628Z,68.10
2022-09-12T22:41:39.526Z,68.10
2022-09-12T22:44:12.653Z,68.13
2022-09-12T22:46:45.532Z,68.11
2022-09-12T22:49:18.275Z,68.12
2022-09-12T22:51:51.065Z,68.12
2022-09-12T22:54:23.654Z,68.00
2022-09-12T22:56:56.935Z,68.02
2022-09-12T22:59:29.425Z,68.13
2022-09-12T23:02:02.601Z,68.14
2022-09-12T23:08:43.992Z,68.30
2022-09-12T23:11:19.616Z,68.27
2022-09-12T23:13:54.183Z,68.83
2022-09-12T23:16:28.960Z,68.84
2022-09-12T23:19:02.271Z,68.82
2022-09-12T23:21:34.818Z,68.90
2022-09-12T23:24:07.802Z,69.01
2022-09-12T23:26:41.264Z,69.18
2022-09-12T23:29:14.853Z,69.20
2022-09-12T23:31:47.615Z,68.97
2022-09-12T23:34:20.408Z,68.85
2022-09-12T23:36:53.151Z,68.75
2022-09-12T23:39:26.210Z,68.49
2022-09-12T23:41:59.111Z,68.51
2022-09-12T23:44:32.633Z,68.61
2022-09-12T23:47:05.407Z,68.76
2022-09-12T23:49:38.320Z,68.67
2022-09-12T23:52:11.608Z,68.64
2022-09-12T23:54:44.375Z,68.58
2022-09-12T23:57:17.304Z,68.70
2022-09-12T23:59:50.410Z,69.23
